createdAt,value
2023-05-12T00:00:49.882Z,11.70
2023-05-12T00:03:22.368Z,11.70
2023-05-12T00:05:55.181Z,11.70
2023-05-12T00:08:27.390Z,11.70
2023-05-12T00:11:01.134Z,11.70
2023-05-12T00:13:33.880Z,11.70
2023-05-12T00:16:06.338Z,11.70
2023-05-12T00:18:38.580Z,11.70
2023-05-12T00:21:12.265Z,11.70
2023-05-12T00:23:44.355Z,11.70
2023-05-12T00:26:17.532Z,11.60
2023-05-12T00:28:49.631Z,11.70
2023-05-12T00:31:21.759Z,11.60
2023-05-12T00:33:53.823Z,11.60
2023-05-12T00:36:27.016Z,11.70
2023-05-12T00:38:59.494Z,11.60
2023-05-12T00:41:31.572Z,11.60
2023-05-12T00:44:03.820Z,11.60
2023-05-12T00:46:36.914Z,11.60
2023-05-12T00:49:10.274Z,11.60
2023-05-12T00:51:43.710Z,11.60
2023-05-12T00:54:17.226Z,11.50
2023-05-12T00:56:49.465Z,11.50
2023-05-12T00:59:21.985Z,11.50
2023-05-12T01:01:54.034Z,11.50
2023-05-12T01:04:26.697Z,11.50
2023-05-12T01:07:07.574Z,11.50
2023-05-12T01:09:56.524Z,11.50
2023-05-12T01:12:29.077Z,11.60
2023-05-12T01:15:03.042Z,11.60
2023-05-12T01:17:37.585Z,11.60
2023-05-12T01:20:14.919Z,11.60
2023-05-12T01:22:49.274Z,11.60
2023-05-12T01:25:27.102Z,11.60
2023-05-12T01:28:03.723Z,11.50
2023-05-12T01:30:41.678Z,11.60
2023-05-12T01:33:14.486Z,11.50
2023-05-12T01:35:47.446Z,11.50
2023-05-12T01:38:19.573Z,11.50
2023-05-12T01:40:51.499Z,11.50
2023-05-12T01:43:23.485Z,11.50
2023-05-12T01:45:55.509Z,11.50
2023-05-12T01:48:27.645Z,11.40
2023-05-12T01:51:01.191Z,11.40
2023-05-12T01:53:33.274Z,11.50
2023-05-12T01:56:06.059Z,11.40
2023-05-12T01:58:38.113Z,11.40
2023-05-12T02:01:10.395Z,11.50
2023-05-12T02:03:42.565Z,11.40
2023-05-12T02:06:14.965Z,11.40
2023-05-12T02:08:47.017Z,11.40
2023-05-12T02:11:19.230Z,11.40
2023-05-12T02:13:52.507Z,11.40
2023-05-12T02:16:24.725Z,11.50
2023-05-12T02:18:56.843Z,11.50
2023-05-12T02:21:28.860Z,11.50
2023-05-12T02:24:00.793Z,11.40
2023-05-12T02:26:33.067Z,11.40
2023-05-12T02:29:04.997Z,11.50
2023-05-12T02:31:37.071Z,11.40
2023-05-12T02:34:09.287Z,11.50
2023-05-12T02:36:41.666Z,11.40
2023-05-12T02:39:14.012Z,11.40
2023-05-12T02:41:46.054Z,11.30
2023-05-12T02:44:18.571Z,11.40
2023-05-12T02:46:53.115Z,11.40
2023-05-12T02:49:25.283Z,11.40
2023-05-12T02:51:57.666Z,11.40
2023-05-12T02:54:29.725Z,11.40
2023-05-12T02:57:05.482Z,11.40
2023-05-12T02:59:37.807Z,11.40
2023-05-12T03:02:09.929Z,11.40
2023-05-12T03:04:42.480Z,11.40
2023-05-12T03:07:14.684Z,11.40
2023-05-12T03:09:46.725Z,11.30
2023-05-12T03:12:18.938Z,11.30
2023-05-12T03:14:51.412Z,11.30
2023-05-12T03:17:23.696Z,11.30
2023-05-12T03:19:55.823Z,11.30
2023-05-12T03:22:27.837Z,11.30
2023-05-12T03:24:59.979Z,11.30
2023-05-12T03:27:33.083Z,11.30
2023-05-12T03:30:06.054Z,11.30
2023-05-12T03:32:39.450Z,11.30
2023-05-12T03:35:11.726Z,11.40
2023-05-12T03:37:43.756Z,11.30
2023-05-12T03:40:18.965Z,11.40
2023-05-12T03:42:51.553Z,11.30
2023-05-12T03:45:23.669Z,11.30
2023-05-12T03:47:55.745Z,11.30
2023-05-12T03:50:27.832Z,11.50
2023-05-12T03:53:00.792Z,11.30
2023-05-12T03:55:32.769Z,11.30
2023-05-12T03:58:04.810Z,11.30
2023-05-12T04:00:36.852Z,11.30
2023-05-12T04:03:09.083Z,11.30
2023-05-12T04:05:42.689Z,11.30
2023-05-12T04:08:14.742Z,11.30
2023-05-12T04:10:46.826Z,11.30
2023-05-12T04:13:19.096Z,11.30
2023-05-12T04:15:51.568Z,11.30
2023-05-12T04:18:28.600Z,11.30
2023-05-12T04:21:01.231Z,11.30
2023-05-12T04:23:33.659Z,11.30
2023-05-12T04:26:05.821Z,11.30
2023-05-12T04:28:38.014Z,11.30
2023-05-12T04:31:10.223Z,11.30
2023-05-12T04:33:42.327Z,11.30
2023-05-12T04:36:14.443Z,11.30
2023-05-12T04:38:46.862Z,11.40
2023-05-12T04:41:19.258Z,11.40
2023-05-12T04:46:27.031Z,11.30
2023-05-12T04:48:59.322Z,11.40
2023-05-12T04:51:32.121Z,11.40
2023-05-12T04:54:04.520Z,11.40
2023-05-12T04:56:36.574Z,11.40
2023-05-12T04:59:08.732Z,11.40
2023-05-12T05:01:41.428Z,11.50
2023-05-12T05:04:13.837Z,11.50
2023-05-12T05:06:46.177Z,11.50
2023-05-12T05:09:18.250Z,11.50
2023-05-12T05:11:50.342Z,11.50
2023-05-12T05:14:22.743Z,11.50
2023-05-12T05:16:54.894Z,11.60
2023-05-12T05:19:39.159Z,11.60
2023-05-12T05:22:20.440Z,11.60
2023-05-12T05:24:52.741Z,11.60
2023-05-12T05:27:24.720Z,11.60
2023-05-12T05:29:57.700Z,11.70
2023-05-12T05:32:29.781Z,11.60
2023-05-12T05:35:01.909Z,11.70
2023-05-12T05:37:34.195Z,11.70
2023-05-12T05:40:07.914Z,11.80
2023-05-12T05:42:40.445Z,11.80
2023-05-12T05:45:12.804Z,11.80
2023-05-12T05:47:46.726Z,11.80
2023-05-12T05:50:20.792Z,11.80
2023-05-12T05:52:55.064Z,11.90
2023-05-12T05:55:27.190Z,11.90
2023-05-12T05:57:59.132Z,11.90
2023-05-12T06:00:31.402Z,11.90
2023-05-12T06:03:03.876Z,11.90
2023-05-12T06:05:36.150Z,12.00
2023-05-12T06:08:09.388Z,12.00
2023-05-12T06:10:44.506Z,12.00
2023-05-12T06:13:16.760Z,12.00
2023-05-12T06:15:48.848Z,12.10
2023-05-12T06:18:23.048Z,12.10
2023-05-12T06:20:55.088Z,12.10
2023-05-12T06:23:27.318Z,12.10
2023-05-12T06:25:59.454Z,12.20
2023-05-12T06:28:31.698Z,12.20
2023-05-12T06:31:08.548Z,12.20
2023-05-12T06:33:40.554Z,12.20
2023-05-12T06:36:12.788Z,12.30
2023-05-12T06:38:44.996Z,12.30
2023-05-12T06:41:17.405Z,12.40
2023-05-12T06:43:49.482Z,12.40
2023-05-12T06:46:22.611Z,12.50
2023-05-12T06:48:57.773Z,12.50
2023-05-12T06:51:31.321Z,12.60
2023-05-12T06:54:03.571Z,12.70
2023-05-12T06:56:36.107Z,12.70
2023-05-12T06:59:08.428Z,12.70
2023-05-12T07:01:42.972Z,12.80
2023-05-12T07:04:15.260Z,12.80
2023-05-12T07:06:47.634Z,12.90
2023-05-12T07:09:19.838Z,12.90
2023-05-12T07:11:52.041Z,13.00
2023-05-12T07:14:25.312Z,13.00
2023-05-12T07:16:57.624Z,13.10
2023-05-12T07:19:29.874Z,13.20
2023-05-12T07:22:02.327Z,13.20
2023-05-12T07:24:34.849Z,13.30
2023-05-12T07:27:08.327Z,13.40
2023-05-12T07:29:40.426Z,13.50
2023-05-12T07:32:12.628Z,13.50
2023-05-12T07:34:45.168Z,13.50
2023-05-12T07:37:17.497Z,13.50
2023-05-12T07:39:54.533Z,13.50
2023-05-12T07:42:29.256Z,13.50
2023-05-12T07:45:02.300Z,13.50
2023-05-12T07:47:35.026Z,13.60
2023-05-12T07:50:09.216Z,13.60
2023-05-12T07:52:52.481Z,13.80
2023-05-12T07:55:26.075Z,14.00
2023-05-12T07:57:58.965Z,14.00
2023-05-12T08:00:31.742Z,14.10
2023-05-12T08:03:05.797Z,14.20
2023-05-12T08:05:39.079Z,14.30
2023-05-12T08:08:16.929Z,14.40
2023-05-12T08:10:49.502Z,14.40
2023-05-12T08:13:22.214Z,14.40
2023-05-12T08:15:54.564Z,14.40
2023-05-12T08:18:27.041Z,14.50
2023-05-12T08:20:59.490Z,14.60
2023-05-12T08:23:32.083Z,14.70
2023-05-12T08:26:05.076Z,14.90
2023-05-12T08:28:37.459Z,15.40
2023-05-12T08:31:10.014Z,16.20
2023-05-12T08:33:42.966Z,17.10
2023-05-12T08:36:15.701Z,17.70
2023-05-12T08:38:48.112Z,17.90
2023-05-12T08:41:27.516Z,17.80
2023-05-12T08:44:14.100Z,17.50
2023-05-12T08:46:48.561Z,17.30
2023-05-12T08:49:25.233Z,16.90
2023-05-12T08:52:02.484Z,16.70
2023-05-12T08:54:48.493Z,16.40
2023-05-12T08:57:28.719Z,16.20
2023-05-12T09:00:04.209Z,16.00
2023-05-12T09:02:53.285Z,15.80
2023-05-12T09:05:29.953Z,15.70
2023-05-12T09:08:03.010Z,15.70
2023-05-12T09:10:36.939Z,15.70
2023-05-12T09:13:17.727Z,15.70
2023-05-12T09:15:59.031Z,15.60
2023-05-12T09:18:53.456Z,15.60
2023-05-12T09:21:28.720Z,15.60
2023-05-12T09:24:06.221Z,15.60
2023-05-12T09:26:47.919Z,15.70
2023-05-12T09:29:30.504Z,15.70
2023-05-12T09:32:04.787Z,15.80
2023-05-12T09:34:38.853Z,15.80
2023-05-12T09:37:15.575Z,15.80
2023-05-12T09:39:47.944Z,15.80
2023-05-12T09:42:32.751Z,15.80
2023-05-12T09:45:10.534Z,15.80
2023-05-12T09:47:45.641Z,15.90
2023-05-12T09:50:19.218Z,15.90
2023-05-12T09:52:52.214Z,15.90
2023-05-12T09:55:24.666Z,16.00
2023-05-12T09:57:58.981Z,16.10
2023-05-12T10:00:51.966Z,16.40
2023-05-12T10:03:30.559Z,16.80
2023-05-12T10:06:08.212Z,17.10
2023-05-12T10:08:49.270Z,17.30
2023-05-12T10:11:36.600Z,17.50
2023-05-12T10:14:10.245Z,17.50
2023-05-12T10:16:44.255Z,17.50
2023-05-12T10:19:18.867Z,17.50
2023-05-12T10:21:51.846Z,17.40
2023-05-12T10:24:28.799Z,17.30
2023-05-12T10:27:03.326Z,17.10
2023-05-12T10:29:37.991Z,17.00
2023-05-12T10:32:10.998Z,16.80
2023-05-12T10:34:43.576Z,16.70
2023-05-12T10:37:16.111Z,16.60
2023-05-12T10:39:50.437Z,16.60
2023-05-12T10:42:25.785Z,16.40
2023-05-12T10:44:58.324Z,16.40
2023-05-12T10:47:38.872Z,16.40
2023-05-12T10:50:13.764Z,16.30
2023-05-12T10:52:57.778Z,16.40
2023-05-12T10:55:35.887Z,16.30
2023-05-12T10:58:15.092Z,16.40
2023-05-12T11:00:51.985Z,16.50
2023-05-12T11:03:26.174Z,16.50
2023-05-12T11:06:01.590Z,16.70
2023-05-12T11:08:37.915Z,16.80
2023-05-12T11:11:12.057Z,16.80
2023-05-12T11:13:48.969Z,16.90
2023-05-12T11:16:21.470Z,16.90
2023-05-12T11:19:04.810Z,17.00
2023-05-12T11:21:38.872Z,16.90
2023-05-12T11:24:14.602Z,16.80
2023-05-12T11:26:52.068Z,16.70
2023-05-12T11:29:24.776Z,16.60
2023-05-12T11:31:58.789Z,16.50
2023-05-12T11:34:31.702Z,16.50
2023-05-12T11:37:05.355Z,16.50
2023-05-12T11:39:38.158Z,16.50
2023-05-12T11:42:14.689Z,16.50
2023-05-12T11:44:50.377Z,16.50
2023-05-12T11:47:23.090Z,16.50
2023-05-12T11:49:56.178Z,16.50
2023-05-12T11:52:29.181Z,16.60
2023-05-12T11:55:06.472Z,16.70
2023-05-12T11:57:39.716Z,16.80
2023-05-12T12:00:13.209Z,16.90
2023-05-12T12:02:46.717Z,17.10
2023-05-12T12:05:21.914Z,17.20
2023-05-12T12:08:15.145Z,17.20
2023-05-12T12:10:48.062Z,17.20
2023-05-12T12:13:25.502Z,17.20
2023-05-12T12:15:58.590Z,17.30
2023-05-12T12:18:31.011Z,17.30
2023-05-12T12:21:03.787Z,17.20
2023-05-12T12:23:47.691Z,17.20
2023-05-12T12:26:23.476Z,17.20
2023-05-12T12:28:55.710Z,17.10
2023-05-12T12:31:28.758Z,17.10
2023-05-12T12:34:01.398Z,17.00
2023-05-12T12:36:34.860Z,17.00
2023-05-12T12:39:09.630Z,17.00
2023-05-12T12:41:44.294Z,17.10
2023-05-12T12:44:19.396Z,17.10
2023-05-12T12:46:52.311Z,17.10
2023-05-12T12:49:24.942Z,17.20
2023-05-12T12:51:57.090Z,17.30
2023-05-12T12:54:29.726Z,17.30
2023-05-12T12:57:02.222Z,17.30
2023-05-12T12:59:34.823Z,17.40
2023-05-12T13:02:07.916Z,17.40
2023-05-12T13:04:41.388Z,17.20
2023-05-12T13:07:14.208Z,17.10
2023-05-12T13:09:49.492Z,16.90
2023-05-12T13:12:22.504Z,16.70
2023-05-12T13:14:55.346Z,16.60
2023-05-12T13:17:28.697Z,16.40
2023-05-12T13:20:01.173Z,16.20
2023-05-12T13:22:36.172Z,16.10
2023-05-12T13:25:09.160Z,16.00
2023-05-12T13:27:42.610Z,15.90
2023-05-12T13:30:15.055Z,15.80
2023-05-12T13:32:48.660Z,15.70
2023-05-12T13:35:22.893Z,15.70
2023-05-12T13:37:56.093Z,15.60
2023-05-12T13:40:28.645Z,15.40
2023-05-12T13:43:01.372Z,15.40
2023-05-12T13:45:35.170Z,15.40
2023-05-12T13:48:07.608Z,15.30
2023-05-12T13:50:40.372Z,15.20
2023-05-12T13:53:13.269Z,15.20
2023-05-12T13:55:46.701Z,15.20
2023-05-12T13:58:20.132Z,15.20
2023-05-12T14:00:52.859Z,15.30
2023-05-12T14:03:25.646Z,15.30
2023-05-12T14:05:58.348Z,15.30
2023-05-12T14:08:31.569Z,15.30
2023-05-12T14:11:04.174Z,15.30
2023-05-12T14:13:36.757Z,15.30
2023-05-12T14:16:09.713Z,15.30
2023-05-12T14:18:45.126Z,15.30
2023-05-12T14:21:17.728Z,15.30
2023-05-12T14:23:51.315Z,15.40
2023-05-12T14:26:25.918Z,15.30
2023-05-12T14:28:59.429Z,15.30
2023-05-12T14:31:32.984Z,15.40
2023-05-12T14:34:05.357Z,15.50
2023-05-12T14:36:39.867Z,15.50
2023-05-12T14:39:13.200Z,15.60
2023-05-12T14:41:45.830Z,15.70
2023-05-12T14:44:17.917Z,15.70
2023-05-12T14:46:50.111Z,15.70
2023-05-12T14:49:22.823Z,15.80
2023-05-12T14:51:55.789Z,15.80
2023-05-12T14:54:28.369Z,15.80
2023-05-12T14:57:00.908Z,15.80
2023-05-12T14:59:33.976Z,15.80
2023-05-12T15:02:08.152Z,15.80
2023-05-12T15:04:40.796Z,15.90
2023-05-12T15:07:13.551Z,16.00
2023-05-12T15:09:46.203Z,16.10
2023-05-12T15:12:19.418Z,16.10
2023-05-12T15:14:51.816Z,16.20
2023-05-12T15:17:24.635Z,16.30
2023-05-12T15:19:58.496Z,16.40
2023-05-12T15:22:31.665Z,16.40
2023-05-12T15:25:04.902Z,16.40
2023-05-12T15:27:38.892Z,16.40
2023-05-12T15:30:12.320Z,16.40
2023-05-12T15:32:45.111Z,16.30
2023-05-12T15:35:17.596Z,16.40
2023-05-12T15:37:50.104Z,16.30
2023-05-12T15:40:22.809Z,16.40
2023-05-12T15:42:55.640Z,16.40
2023-05-12T15:45:28.543Z,16.30
2023-05-12T15:48:02.366Z,16.30
2023-05-12T15:50:36.211Z,16.30
2023-05-12T15:53:09.260Z,16.30
2023-05-12T15:55:41.299Z,16.30
2023-05-12T15:58:15.272Z,16.30
2023-05-12T16:00:47.964Z,16.30
2023-05-12T16:03:20.455Z,16.30
2023-05-12T16:05:53.132Z,16.30
2023-05-12T16:08:26.062Z,16.30
2023-05-12T16:10:58.928Z,16.20
2023-05-12T16:13:32.281Z,16.10
2023-05-12T16:16:05.589Z,16.10
2023-05-12T16:18:38.317Z,16.00
2023-05-12T16:21:12.816Z,16.00
2023-05-12T16:23:45.414Z,16.00
2023-05-12T16:26:19.374Z,16.00
2023-05-12T16:28:52.041Z,16.00
2023-05-12T16:31:25.138Z,15.90
2023-05-12T16:33:58.085Z,15.90
2023-05-12T16:36:31.861Z,15.80
2023-05-12T16:39:05.120Z,15.80
2023-05-12T16:41:37.778Z,15.70
2023-05-12T16:44:10.811Z,15.70
2023-05-12T16:46:43.318Z,15.60
2023-05-12T16:49:15.953Z,15.60
2023-05-12T16:51:48.391Z,15.60
2023-05-12T16:54:21.610Z,15.50
2023-05-12T16:56:53.951Z,15.50
2023-05-12T16:59:27.475Z,15.60
2023-05-12T17:02:02.104Z,15.60
2023-05-12T17:04:36.781Z,15.60
2023-05-12T17:07:09.625Z,15.60
2023-05-12T17:09:41.787Z,15.50
2023-05-12T17:12:14.342Z,15.50
2023-05-12T17:14:59.433Z,15.50
2023-05-12T17:17:41.631Z,15.50
2023-05-12T17:20:14.644Z,15.50
2023-05-12T17:22:50.311Z,15.40
2023-05-12T17:25:23.397Z,15.40
2023-05-12T17:27:56.009Z,15.30
2023-05-12T17:30:28.372Z,15.30
2023-05-12T17:33:00.835Z,15.20
2023-05-12T17:35:32.950Z,15.20
2023-05-12T17:38:05.482Z,15.10
2023-05-12T17:40:37.912Z,15.00
2023-05-12T17:43:10.140Z,15.00
2023-05-12T17:45:43.031Z,15.00
2023-05-12T17:48:15.831Z,14.90
2023-05-12T17:50:48.962Z,14.80
2023-05-12T17:53:21.558Z,14.80
2023-05-12T17:55:54.453Z,14.70
2023-05-12T17:58:26.814Z,14.60
2023-05-12T18:00:59.752Z,14.60
2023-05-12T18:03:32.347Z,14.50
2023-05-12T18:06:06.417Z,14.50
2023-05-12T18:08:43.656Z,14.50
2023-05-12T18:11:16.342Z,14.40
2023-05-12T18:13:51.232Z,14.30
2023-05-12T18:16:28.917Z,14.30
2023-05-12T18:19:01.919Z,14.20
2023-05-12T18:21:35.206Z,14.20
2023-05-12T18:24:08.714Z,14.20
2023-05-12T18:26:41.669Z,14.10
2023-05-12T18:29:14.792Z,14.10
2023-05-12T18:31:47.567Z,14.10
2023-05-12T18:34:20.259Z,14.00
2023-05-12T18:36:53.662Z,14.00
2023-05-12T18:39:26.345Z,14.00
2023-05-12T18:41:59.241Z,13.90
2023-05-12T18:44:32.158Z,13.90
2023-05-12T18:47:05.254Z,13.90
2023-05-12T18:49:39.001Z,13.90
2023-05-12T18:52:11.860Z,13.80
2023-05-12T18:54:48.088Z,13.80
2023-05-12T18:57:22.773Z,13.80
2023-05-12T18:59:55.983Z,13.70
2023-05-12T19:02:28.714Z,13.70
2023-05-12T19:05:01.540Z,13.70
2023-05-12T19:07:34.512Z,13.70
2023-05-12T19:10:07.692Z,13.60
2023-05-12T19:12:42.589Z,13.60
2023-05-12T19:15:15.865Z,13.60
2023-05-12T19:17:49.707Z,13.50
2023-05-12T19:20:23.194Z,13.50
2023-05-12T19:22:56.211Z,13.50
2023-05-12T19:25:31.265Z,13.40
2023-05-12T19:28:05.008Z,13.40
2023-05-12T19:30:37.701Z,13.40
2023-05-12T19:33:10.593Z,13.40
2023-05-12T19:35:43.446Z,13.30
2023-05-12T19:38:16.400Z,13.30
2023-05-12T19:40:52.482Z,13.30
2023-05-12T19:43:25.282Z,13.20
2023-05-12T19:45:58.369Z,13.20
2023-05-12T19:48:31.599Z,13.20
2023-05-12T19:51:04.409Z,13.20
2023-05-12T19:53:37.527Z,13.10
2023-05-12T19:56:10.801Z,13.10
2023-05-12T19:58:44.587Z,13.10
2023-05-12T20:01:17.714Z,13.10
2023-05-12T20:03:50.913Z,13.10
2023-05-12T20:06:25.198Z,13.10
2023-05-12T20:08:57.863Z,13.10
2023-05-12T20:11:31.357Z,13.10
2023-05-12T20:14:06.668Z,13.10
2023-05-12T20:16:39.587Z,13.10
2023-05-12T20:19:12.019Z,13.10
2023-05-12T20:21:44.956Z,13.10
2023-05-12T20:24:17.895Z,13.10
2023-05-12T20:26:51.177Z,13.10
2023-05-12T20:29:26.002Z,13.10
2023-05-12T20:31:59.417Z,13.10
2023-05-12T20:34:32.296Z,13.10
2023-05-12T20:37:06.099Z,13.10
2023-05-12T20:39:38.804Z,13.10
2023-05-12T20:42:12.004Z,13.10
2023-05-12T20:44:45.244Z,13.00
2023-05-12T20:47:18.029Z,13.00
2023-05-12T20:49:57.483Z,13.00
2023-05-12T20:52:33.884Z,13.00
2023-05-12T20:55:09.911Z,12.90
2023-05-12T20:57:42.815Z,12.90
2023-05-12T21:00:16.200Z,12.90
2023-05-12T21:02:53.122Z,12.80
2023-05-12T21:05:26.688Z,12.80
2023-05-12T21:08:00.070Z,12.80
2023-05-12T21:10:33.081Z,12.70
2023-05-12T21:13:10.201Z,12.70
2023-05-12T21:15:43.288Z,12.70
2023-05-12T21:18:15.687Z,12.60
2023-05-12T21:20:48.613Z,12.50
2023-05-12T21:23:20.905Z,12.50
2023-05-12T21:25:54.021Z,12.50
2023-05-12T21:28:27.028Z,12.40
2023-05-12T21:30:59.815Z,12.30
2023-05-12T21:33:33.244Z,12.30
2023-05-12T21:36:05.939Z,12.20
2023-05-12T21:38:38.853Z,12.20
2023-05-12T21:41:11.150Z,12.20
2023-05-12T21:43:43.677Z,12.20
2023-05-12T21:46:15.936Z,12.20
2023-05-12T21:48:48.381Z,12.20
2023-05-12T21:51:20.770Z,12.20
2023-05-12T21:53:56.701Z,12.20
2023-05-12T21:56:29.819Z,12.20
2023-05-12T21:59:02.309Z,12.20
2023-05-12T22:01:34.793Z,12.20
2023-05-12T22:04:07.803Z,12.20
2023-05-12T22:06:40.319Z,12.20
2023-05-12T22:09:13.354Z,12.20
2023-05-12T22:11:46.898Z,12.20
2023-05-12T22:14:19.714Z,12.30
2023-05-12T22:16:52.148Z,12.30
2023-05-12T22:19:24.534Z,12.20
2023-05-12T22:21:58.287Z,12.30
2023-05-12T22:24:30.475Z,12.30
2023-05-12T22:27:02.925Z,12.30
2023-05-12T22:29:35.337Z,12.30
2023-05-12T22:32:07.503Z,12.30
2023-05-12T22:34:39.673Z,12.30
2023-05-12T22:37:12.179Z,12.30
2023-05-12T22:39:44.688Z,12.30
2023-05-12T22:42:17.024Z,12.30
2023-05-12T22:44:50.096Z,12.30
2023-05-12T22:47:22.916Z,12.30
2023-05-12T22:49:55.043Z,12.30
2023-05-12T22:52:27.344Z,12.30
2023-05-12T22:54:59.499Z,12.30
2023-05-12T22:57:31.771Z,12.20
2023-05-12T23:00:05.098Z,12.20
2023-05-12T23:02:38.256Z,12.20
2023-05-12T23:05:10.616Z,12.10
2023-05-12T23:07:42.641Z,12.10
2023-05-12T23:10:15.082Z,12.00
2023-05-12T23:12:47.325Z,12.00
2023-05-12T23:15:19.549Z,11.90
2023-05-12T23:17:52.018Z,11.80
2023-05-12T23:20:24.341Z,11.80
2023-05-12T23:22:56.615Z,11.80
2023-05-12T23:25:28.716Z,11.70
2023-05-12T23:28:00.955Z,11.60
2023-05-12T23:30:33.071Z,11.60
2023-05-12T23:33:05.414Z,11.50
2023-05-12T23:35:37.908Z,11.50
2023-05-12T23:38:10.610Z,11.50
2023-05-12T23:40:42.713Z,11.40
2023-05-12T23:43:14.961Z,11.40
2023-05-12T23:45:47.192Z,11.40
2023-05-12T23:48:19.242Z,11.40
2023-05-12T23:50:51.416Z,11.40
2023-05-12T23:53:23.520Z,11.40
2023-05-12T23:55:55.765Z,11.40
2023-05-12T23:58:27.898Z,11.40
